createdAt,value
2022-11-27T00:01:57.443Z,72.71
2022-11-27T00:04:27.325Z,72.89
2022-11-27T00:06:55.126Z,73.11
2022-11-27T00:09:23.087Z,73.19
2022-11-27T00:11:53.530Z,73.47
2022-11-27T00:14:21.324Z,73.74
2022-11-27T00:16:49.346Z,73.75
2022-11-27T00:19:20.385Z,73.69
2022-11-27T00:21:48.222Z,73.61
2022-11-27T00:24:16.161Z,73.72
2022-11-27T00:26:46.146Z,73.79
2022-11-27T00:29:13.942Z,73.88
2022-11-27T00:31:41.774Z,73.93
2022-11-27T00:34:10.985Z,73.87
2022-11-27T00:36:43.972Z,73.81
2022-11-27T00:39:26.056Z,73.85
2022-11-27T00:41:57.689Z,73.84
2022-11-27T00:44:30.339Z,74.04
2022-11-27T00:46:58.389Z,74.07
2022-11-27T00:49:26.425Z,73.94
2022-11-27T00:51:55.863Z,73.84
2022-11-27T00:54:26.808Z,73.83
2022-11-27T00:56:56.623Z,73.70
2022-11-27T00:59:27.270Z,73.59
2022-11-27T01:01:58.691Z,73.55
2022-11-27T01:04:26.629Z,73.63
2022-11-27T01:06:57.294Z,73.50
2022-11-27T01:09:25.190Z,73.42
2022-11-27T01:11:53.021Z,73.55
2022-11-27T01:14:23.222Z,73.55
2022-11-27T01:16:52.563Z,73.75
2022-11-27T01:19:20.477Z,74.08
2022-11-27T01:21:51.410Z,74.23
2022-11-27T01:24:21.885Z,74.32
2022-11-27T01:26:49.747Z,74.45
2022-11-27T01:29:17.627Z,74.52
2022-11-27T01:31:45.570Z,74.50
2022-11-27T01:34:17.864Z,74.36
2022-11-27T01:36:46.183Z,74.21
2022-11-27T01:39:18.980Z,74.16
2022-11-27T01:41:48.530Z,74.14
2022-11-27T01:44:25.444Z,74.23
2022-11-27T01:47:05.040Z,74.43
2022-11-27T01:49:45.879Z,74.41
2022-11-27T01:52:31.909Z,74.37
2022-11-27T01:55:31.175Z,74.46
2022-11-27T01:58:23.222Z,74.63
2022-11-27T02:00:54.282Z,74.72
2022-11-27T02:03:23.143Z,74.69
2022-11-27T02:05:51.417Z,74.74
2022-11-27T02:08:19.571Z,74.86
2022-11-27T02:10:54.601Z,75.01
2022-11-27T02:13:33.730Z,74.92
2022-11-27T02:16:18.137Z,74.89
2022-11-27T02:19:13.806Z,74.83
2022-11-27T02:22:13.993Z,74.70
2022-11-27T02:24:48.448Z,74.86
2022-11-27T02:27:52.285Z,74.74
2022-11-27T02:30:20.493Z,74.48
2022-11-27T02:32:58.804Z,74.73
2022-11-27T02:35:57.364Z,74.92
2022-11-27T02:38:46.638Z,74.95
2022-11-27T02:41:26.987Z,74.63
2022-11-27T02:43:56.784Z,74.45
2022-11-27T02:46:28.688Z,74.65
2022-11-27T02:49:14.555Z,74.72
2022-11-27T02:51:59.161Z,74.87
2022-11-27T02:54:31.229Z,74.96
2022-11-27T02:57:06.013Z,74.96
2022-11-27T02:59:39.973Z,74.71
2022-11-27T03:02:18.807Z,74.68
2022-11-27T03:04:55.187Z,74.77
2022-11-27T03:07:35.930Z,74.79
2022-11-27T03:10:29.749Z,74.69
2022-11-27T03:13:03.042Z,74.81
2022-11-27T03:15:59.151Z,75.07
2022-11-27T03:18:47.897Z,75.11
2022-11-27T03:21:29.075Z,74.96
2022-11-27T03:23:58.371Z,75.09
2022-11-27T03:26:28.669Z,75.13
2022-11-27T03:28:59.935Z,75.06
2022-11-27T03:31:28.487Z,75.11
2022-11-27T03:33:56.898Z,75.29
2022-11-27T03:36:26.094Z,75.48
2022-11-27T03:38:56.442Z,75.35
2022-11-27T03:41:39.419Z,75.33
2022-11-27T03:44:53.631Z,75.41
2022-11-27T03:48:05.912Z,75.30
2022-11-27T03:51:02.481Z,75.07
2022-11-27T03:54:12.210Z,75.12
2022-11-27T03:57:07.880Z,75.27
2022-11-27T03:59:43.055Z,75.18
2022-11-27T04:02:15.104Z,75.32
2022-11-27T04:04:43.209Z,75.60
2022-11-27T04:07:18.317Z,75.73
2022-11-27T04:09:47.495Z,75.67
2022-11-27T04:12:18.490Z,75.54
2022-11-27T04:14:46.254Z,75.38
2022-11-27T04:17:14.079Z,75.45
2022-11-27T04:19:41.951Z,75.49
2022-11-27T04:22:14.623Z,75.72
2022-11-27T04:24:42.724Z,75.90
2022-11-27T04:27:11.066Z,75.86
2022-11-27T04:29:38.826Z,75.88
2022-11-27T04:32:06.822Z,75.95
2022-11-27T04:34:34.770Z,75.87
2022-11-27T04:37:02.838Z,75.88
2022-11-27T04:39:30.633Z,76.03
2022-11-27T04:42:01.958Z,75.82
2022-11-27T04:44:29.922Z,75.83
2022-11-27T04:46:57.894Z,75.98
2022-11-27T04:49:28.315Z,76.08
2022-11-27T04:51:56.171Z,76.10
2022-11-27T04:54:26.327Z,76.04
2022-11-27T04:56:56.890Z,75.79
2022-11-27T04:59:24.875Z,75.82
2022-11-27T05:01:52.693Z,75.91
2022-11-27T05:04:21.978Z,75.82
2022-11-27T05:06:50.260Z,75.82
2022-11-27T05:09:19.541Z,75.87
2022-11-27T05:11:47.466Z,76.01
2022-11-27T05:14:16.204Z,76.03
2022-11-27T05:16:47.964Z,76.03
2022-11-27T05:19:20.416Z,75.92
2022-11-27T05:21:50.142Z,75.88
2022-11-27T05:24:22.953Z,75.74
2022-11-27T05:26:51.377Z,75.81
2022-11-27T05:29:20.495Z,75.95
2022-11-27T05:31:48.675Z,75.97
2022-11-27T05:34:16.582Z,75.95
2022-11-27T05:36:44.937Z,75.85
2022-11-27T05:39:15.275Z,75.75
2022-11-27T05:41:46.185Z,75.69
2022-11-27T05:44:15.280Z,75.78
2022-11-27T05:46:52.459Z,75.82
2022-11-27T05:49:24.235Z,75.89
2022-11-27T05:51:52.116Z,75.76
2022-11-27T05:54:24.329Z,75.75
2022-11-27T05:56:55.736Z,75.84
2022-11-27T05:59:23.506Z,75.90
2022-11-27T06:02:05.721Z,75.87
2022-11-27T06:04:44.932Z,75.76
2022-11-27T06:07:15.175Z,75.90
2022-11-27T06:09:49.010Z,76.07
2022-11-27T06:15:49.171Z,76.24
2022-11-27T06:18:29.717Z,76.27
2022-11-27T06:21:02.097Z,76.17
2022-11-27T06:23:37.994Z,76.01
2022-11-27T06:26:23.093Z,76.07
2022-11-27T06:28:57.143Z,75.92
2022-11-27T06:31:34.788Z,75.83
2022-11-27T06:34:14.102Z,75.77
2022-11-27T06:37:00.817Z,75.73
2022-11-27T06:39:31.673Z,75.85
2022-11-27T06:42:14.247Z,75.80
2022-11-27T06:45:06.609Z,75.74
2022-11-27T06:47:41.174Z,75.72
2022-11-27T06:50:18.794Z,75.73
2022-11-27T06:52:59.400Z,75.76
2022-11-27T06:55:32.926Z,75.74
2022-11-27T06:58:25.321Z,75.59
2022-11-27T07:01:14.187Z,75.61
2022-11-27T07:03:54.969Z,75.63
2022-11-27T07:06:30.819Z,75.59
2022-11-27T07:09:04.675Z,75.36
2022-11-27T07:12:04.908Z,75.12
2022-11-27T07:14:37.386Z,75.32
2022-11-27T07:17:06.911Z,75.49
2022-11-27T07:19:51.107Z,75.53
2022-11-27T07:22:21.308Z,75.56
2022-11-27T07:24:54.969Z,75.55
2022-11-27T07:27:25.296Z,75.23
2022-11-27T07:29:57.311Z,75.29
2022-11-27T07:32:25.250Z,75.45
2022-11-27T07:34:59.614Z,75.77
2022-11-27T07:37:31.225Z,75.75
2022-11-27T07:40:03.669Z,75.73
2022-11-27T07:42:38.290Z,75.56
2022-11-27T07:45:14.239Z,75.49
2022-11-27T07:47:46.848Z,75.60
2022-11-27T07:50:15.825Z,75.52
2022-11-27T07:52:49.907Z,75.38
2022-11-27T07:55:20.238Z,75.47
2022-11-27T07:57:50.742Z,75.33
2022-11-27T08:00:19.303Z,75.21
2022-11-27T08:02:50.443Z,75.31
2022-11-27T08:05:33.921Z,75.37
2022-11-27T08:08:26.833Z,75.27
2022-11-27T08:11:52.497Z,75.23
2022-11-27T08:14:26.056Z,75.58
2022-11-27T08:17:08.583Z,75.84
2022-11-27T08:20:15.403Z,75.80
2022-11-27T08:23:15.014Z,75.84
2022-11-27T08:25:44.181Z,75.75
2022-11-27T08:28:13.426Z,75.59
2022-11-27T08:30:45.581Z,75.65
2022-11-27T08:33:23.624Z,75.48
2022-11-27T08:36:58.668Z,75.64
2022-11-27T08:39:33.283Z,75.70
2022-11-27T08:42:25.871Z,75.65
2022-11-27T08:45:08.892Z,75.76
2022-11-27T08:47:43.051Z,75.88
2022-11-27T08:50:20.918Z,76.02
2022-11-27T08:52:55.654Z,75.88
2022-11-27T08:55:57.342Z,75.89
2022-11-27T08:58:47.597Z,75.84
2022-11-27T09:02:09.507Z,75.80
2022-11-27T09:05:12.169Z,76.08
2022-11-27T09:08:22.592Z,76.04
2022-11-27T09:11:13.328Z,76.03
2022-11-27T09:17:23.127Z,76.00
2022-11-27T09:20:08.212Z,76.21
2022-11-27T09:22:40.637Z,76.20
2022-11-27T09:25:19.126Z,76.06
2022-11-27T09:27:48.462Z,75.82
2022-11-27T09:30:17.496Z,75.68
2022-11-27T09:32:46.437Z,75.15
2022-11-27T09:35:18.352Z,75.17
2022-11-27T09:38:05.254Z,75.11
2022-11-27T09:41:11.436Z,75.07
2022-11-27T09:43:55.722Z,74.44
2022-11-27T09:46:49.129Z,74.34
2022-11-27T09:49:29.047Z,74.32
2022-11-27T09:52:19.948Z,74.53
2022-11-27T09:55:43.385Z,74.67
2022-11-27T09:58:53.360Z,74.38
2022-11-27T10:01:38.571Z,74.15
2022-11-27T10:04:24.214Z,74.11
2022-11-27T10:07:37.701Z,73.69
2022-11-27T10:10:30.936Z,73.34
2022-11-27T10:13:35.442Z,73.26
2022-11-27T10:16:34.424Z,73.23
2022-11-27T10:19:40.078Z,73.57
2022-11-27T10:22:22.088Z,73.37
2022-11-27T10:25:29.230Z,73.30
2022-11-27T10:28:19.654Z,73.45
2022-11-27T10:30:57.206Z,73.32
2022-11-27T10:33:43.453Z,73.21
2022-11-27T10:36:30.941Z,73.10
2022-11-27T10:39:13.739Z,72.98
2022-11-27T10:42:21.202Z,73.18
2022-11-27T10:45:04.246Z,73.10
2022-11-27T10:47:34.033Z,73.00
2022-11-27T10:50:16.821Z,72.53
2022-11-27T10:53:00.677Z,72.12
2022-11-27T10:56:15.607Z,72.27
2022-11-27T10:59:04.794Z,72.20
2022-11-27T11:01:50.390Z,72.14
2022-11-27T11:04:38.645Z,72.23
2022-11-27T11:07:50.818Z,71.87
2022-11-27T11:10:36.280Z,71.49
2022-11-27T11:13:25.334Z,71.08
2022-11-27T11:16:21.912Z,71.16
2022-11-27T11:19:01.893Z,71.07
2022-11-27T11:21:40.082Z,71.06
2022-11-27T11:24:41.114Z,70.77
2022-11-27T11:27:32.237Z,70.79
2022-11-27T11:30:48.669Z,70.64
2022-11-27T11:33:40.956Z,69.88
2022-11-27T11:36:14.071Z,69.68
2022-11-27T11:38:46.382Z,69.77
2022-11-27T11:41:17.488Z,69.60
2022-11-27T11:44:01.755Z,69.68
2022-11-27T11:46:40.378Z,69.51
2022-11-27T11:49:46.270Z,69.25
2022-11-27T11:53:24.055Z,69.43
2022-11-27T11:56:21.865Z,69.27
2022-11-27T11:59:19.073Z,69.40
2022-11-27T12:02:09.637Z,69.37
2022-11-27T12:05:09.693Z,69.14
2022-11-27T12:08:31.754Z,69.39
2022-11-27T12:11:23.259Z,69.57
2022-11-27T12:14:04.655Z,69.45
2022-11-27T12:16:58.618Z,69.05
2022-11-27T12:20:21.341Z,68.77
2022-11-27T12:23:29.400Z,69.21
2022-11-27T12:26:25.087Z,69.21
2022-11-27T12:29:30.144Z,69.03
2022-11-27T12:32:39.666Z,68.44
2022-11-27T12:35:39.551Z,68.00
2022-11-27T12:38:31.066Z,67.79
2022-11-27T12:41:55.389Z,67.69
2022-11-27T12:44:40.352Z,67.40
2022-11-27T12:47:40.127Z,67.34
2022-11-27T12:50:45.455Z,67.59
2022-11-27T12:53:41.402Z,67.96
2022-11-27T12:56:53.240Z,67.85
2022-11-27T12:59:38.696Z,67.79
2022-11-27T13:02:33.879Z,67.89
2022-11-27T13:05:23.580Z,67.56
2022-11-27T13:07:58.115Z,67.56
2022-11-27T13:10:47.241Z,67.44
2022-11-27T13:13:42.515Z,67.33
2022-11-27T13:16:32.487Z,67.24
2022-11-27T13:19:41.525Z,67.49
2022-11-27T13:22:46.669Z,67.66
2022-11-27T13:25:32.607Z,67.68
2022-11-27T13:28:30.307Z,67.66
2022-11-27T13:31:08.067Z,67.87
2022-11-27T13:33:54.865Z,68.02
2022-11-27T13:36:44.560Z,68.22
2022-11-27T13:39:45.059Z,68.40
2022-11-27T13:42:33.932Z,68.64
2022-11-27T13:49:44.481Z,68.94
2022-11-27T13:52:56.863Z,68.95
2022-11-27T13:55:31.641Z,69.10
2022-11-27T13:58:25.857Z,69.03
2022-11-27T14:01:47.340Z,68.92
2022-11-27T14:04:30.546Z,68.82
2022-11-27T14:07:16.448Z,68.70
2022-11-27T14:10:53.485Z,68.68
2022-11-27T14:13:44.291Z,68.79
2022-11-27T14:16:46.249Z,68.83
2022-11-27T14:20:42.458Z,68.90
2022-11-27T14:23:13.530Z,69.04
2022-11-27T14:25:56.542Z,69.02
2022-11-27T14:28:41.771Z,69.01
2022-11-27T14:31:35.701Z,69.05
2022-11-27T14:34:57.401Z,69.20
2022-11-27T14:37:59.907Z,69.53
2022-11-27T14:40:51.855Z,69.65
2022-11-27T14:43:52.664Z,69.80
2022-11-27T14:46:54.724Z,69.83
2022-11-27T14:49:47.999Z,70.00
2022-11-27T14:52:40.052Z,70.12
2022-11-27T14:55:35.929Z,70.34
2022-11-27T14:58:24.216Z,70.56
2022-11-27T15:01:06.264Z,70.88
2022-11-27T15:03:42.623Z,70.88
2022-11-27T15:06:29.193Z,70.78
2022-11-27T15:09:29.792Z,70.74
2022-11-27T15:12:32.570Z,70.70
2022-11-27T15:15:37.772Z,70.44
2022-11-27T15:18:27.074Z,70.48
2022-11-27T15:21:08.720Z,70.80
2022-11-27T15:23:49.100Z,71.16
2022-11-27T15:26:46.978Z,71.17
2022-11-27T15:30:11.285Z,71.02
2022-11-27T15:33:55.499Z,71.18
2022-11-27T15:36:49.363Z,71.37
2022-11-27T15:39:50.353Z,71.49
2022-11-27T15:42:37.941Z,71.52
2022-11-27T15:45:13.542Z,71.58
2022-11-27T15:48:14.522Z,71.46
2022-11-27T15:54:06.765Z,71.50
2022-11-27T15:56:49.134Z,71.45
2022-11-27T15:59:26.960Z,71.48
2022-11-27T16:01:56.641Z,71.51
2022-11-27T16:04:30.372Z,71.54
2022-11-27T16:07:09.678Z,71.55
2022-11-27T16:09:49.895Z,71.62
2022-11-27T16:12:40.661Z,71.60
2022-11-27T16:15:21.669Z,71.35
2022-11-27T16:18:18.740Z,71.33
2022-11-27T16:20:54.802Z,71.50
2022-11-27T16:23:32.286Z,71.59
2022-11-27T16:26:30.565Z,71.74
2022-11-27T16:29:25.054Z,71.97
2022-11-27T16:32:02.271Z,72.24
2022-11-27T16:35:01.098Z,72.23
2022-11-27T16:37:33.407Z,72.37
2022-11-27T16:40:19.876Z,72.49
2022-11-27T16:43:30.592Z,72.65
2022-11-27T16:46:32.105Z,72.67
2022-11-27T16:49:07.279Z,72.64
2022-11-27T17:03:06.969Z,72.76
2022-11-27T17:05:53.091Z,72.84
2022-11-27T17:08:27.812Z,72.93
2022-11-27T17:11:07.289Z,73.05
2022-11-27T17:13:54.799Z,73.11
2022-11-27T17:16:48.314Z,73.20
2022-11-27T17:19:37.816Z,73.23
2022-11-27T17:22:21.101Z,73.29
2022-11-27T17:24:55.898Z,73.25
2022-11-27T17:28:37.342Z,73.30
2022-11-27T17:31:44.983Z,73.64
2022-11-27T17:34:40.232Z,73.73
2022-11-27T17:37:21.973Z,73.50
2022-11-27T17:40:10.926Z,73.47
2022-11-27T17:42:46.160Z,73.64
2022-11-27T17:45:41.830Z,73.69
2022-11-27T17:48:30.984Z,73.79
2022-11-27T17:55:12.176Z,74.08
2022-11-27T18:05:29.546Z,74.50
2022-11-27T18:08:12.753Z,74.48
2022-11-27T18:10:49.148Z,74.28
2022-11-27T18:13:34.897Z,74.21
2022-11-27T18:16:18.872Z,74.12
2022-11-27T18:18:51.069Z,74.17
2022-11-27T18:21:28.886Z,74.33
2022-11-27T18:29:50.037Z,74.83
2022-11-27T18:32:23.485Z,74.77
2022-11-27T18:35:25.652Z,74.70
2022-11-27T18:38:53.099Z,74.89
2022-11-27T18:41:38.817Z,75.04
2022-11-27T18:44:17.018Z,75.02
2022-11-27T18:46:52.039Z,75.08
2022-11-27T18:49:25.704Z,75.07
2022-11-27T18:52:18.103Z,75.11
2022-11-27T18:58:47.249Z,74.86
2022-11-27T19:01:47.251Z,74.85
2022-11-27T19:04:26.258Z,74.91
2022-11-27T19:07:16.013Z,74.85
2022-11-27T19:09:52.184Z,74.68
2022-11-27T19:13:19.883Z,74.65
2022-11-27T19:15:50.404Z,74.76
2022-11-27T19:22:16.595Z,74.79
2022-11-27T19:24:49.143Z,74.62
2022-11-27T19:27:22.293Z,74.56
2022-11-27T19:30:08.301Z,74.39
2022-11-27T19:32:42.938Z,74.42
2022-11-27T19:35:13.610Z,74.28
2022-11-27T19:37:45.298Z,74.15
2022-11-27T19:40:20.629Z,74.21
2022-11-27T19:43:05.941Z,74.27
2022-11-27T19:48:30.532Z,74.23
2022-11-27T19:51:27.677Z,74.16
2022-11-27T19:59:22.783Z,74.25
2022-11-27T20:01:32.877Z,74.35
2022-11-27T20:04:20.979Z,74.56
2022-11-27T20:07:04.488Z,74.80
2022-11-27T20:09:52.829Z,74.68
2022-11-27T20:12:30.474Z,74.71
2022-11-27T20:15:01.916Z,74.56
2022-11-27T20:17:30.161Z,74.47
2022-11-27T20:20:06.297Z,74.40
2022-11-27T20:22:52.624Z,74.39
2022-11-27T20:26:08.608Z,74.35
2022-11-27T20:29:00.674Z,74.23
2022-11-27T20:31:50.045Z,74.18
2022-11-27T20:35:02.469Z,74.60
2022-11-27T20:38:02.377Z,74.70
2022-11-27T20:40:45.003Z,74.89
2022-11-27T20:44:10.015Z,74.89
2022-11-27T20:46:40.600Z,74.89
2022-11-27T20:49:28.586Z,74.90
2022-11-27T20:52:11.010Z,74.84
2022-11-27T20:54:44.391Z,74.94
2022-11-27T20:57:20.116Z,75.09
2022-11-27T21:00:04.080Z,75.05
2022-11-27T21:03:13.010Z,74.91
2022-11-27T21:09:01.954Z,75.03
2022-11-27T21:13:00.065Z,75.11
2022-11-27T21:15:35.725Z,75.25
2022-11-27T21:18:38.654Z,75.24
2022-11-27T21:21:51.011Z,75.24
2022-11-27T21:25:15.258Z,75.33
2022-11-27T21:28:08.985Z,75.25
2022-11-27T21:31:46.698Z,75.42
2022-11-27T21:34:52.275Z,75.39
2022-11-27T21:38:25.288Z,75.44
2022-11-27T21:41:02.155Z,75.31
2022-11-27T21:43:45.829Z,75.37
2022-11-27T21:46:32.764Z,75.27
2022-11-27T21:49:30.562Z,75.35
2022-11-27T21:52:53.860Z,75.38
2022-11-27T21:55:46.953Z,75.52
2022-11-27T21:59:01.871Z,75.66
2022-11-27T22:01:49.781Z,75.70
2022-11-27T22:04:44.983Z,75.66
2022-11-27T22:07:28.810Z,75.67
2022-11-27T22:10:21.694Z,75.64
2022-11-27T22:13:24.925Z,75.62
2022-11-27T22:16:11.312Z,75.73
2022-11-27T22:19:12.225Z,75.81
2022-11-27T22:22:33.358Z,75.75
2022-11-27T22:25:10.673Z,75.72
2022-11-27T22:28:58.999Z,75.38
2022-11-27T22:32:00.210Z,75.45
2022-11-27T22:34:35.267Z,75.45
2022-11-27T22:40:17.674Z,75.34
2022-11-27T22:43:02.367Z,75.35
2022-11-27T22:45:48.444Z,75.30
2022-11-27T22:48:27.895Z,75.10
2022-11-27T22:51:11.986Z,75.18
2022-11-27T22:54:04.202Z,75.11
2022-11-27T22:56:47.026Z,75.15
2022-11-27T22:59:42.623Z,75.14
2022-11-27T23:02:26.154Z,75.11
2022-11-27T23:05:15.816Z,75.14
2022-11-27T23:08:44.484Z,75.20
2022-11-27T23:11:41.701Z,75.30
2022-11-27T23:14:42.937Z,75.28
2022-11-27T23:21:05.407Z,74.85
2022-11-27T23:24:44.738Z,74.83
2022-11-27T23:31:55.961Z,74.93
2022-11-27T23:34:57.475Z,74.94
2022-11-27T23:38:04.009Z,75.12
2022-11-27T23:48:41.935Z,75.35
2022-11-27T23:51:57.671Z,75.30
2022-11-27T23:55:00.474Z,75.24
2022-11-27T23:57:54.490Z,75.14
